createdAt,value
2019-04-27T00:01:33.623Z,0.50
2019-04-27T00:04:20.512Z,1.03
2019-04-27T00:07:00.331Z,0.77
2019-04-27T00:10:08.428Z,0.60
2019-04-27T00:12:47.864Z,0.87
2019-04-27T00:15:18.949Z,0.40
2019-04-27T00:17:58.437Z,0.73
2019-04-27T00:20:33.248Z,0.33
2019-04-27T00:23:05.051Z,0.50
2019-04-27T00:25:36.138Z,1.23
2019-04-27T00:28:06.013Z,0.43
2019-04-27T00:30:38.640Z,0.70
2019-04-27T00:33:08.824Z,0.50
2019-04-27T00:35:57.055Z,1.33
2019-04-27T00:38:27.189Z,0.60
2019-04-27T00:41:10.544Z,1.27
2019-04-27T00:43:40.701Z,2.83
2019-04-27T00:46:11.335Z,0.87
2019-04-27T00:48:43.288Z,3.67
2019-04-27T00:51:14.755Z,2.27
2019-04-27T00:53:44.206Z,2.77
2019-04-27T00:56:17.547Z,0.60
2019-04-27T00:59:04.147Z,1.30
2019-04-27T01:01:43.502Z,5.40
2019-04-27T01:04:17.507Z,0.87
2019-04-27T01:06:47.624Z,7.17
2019-04-27T01:09:17.999Z,1.50
2019-04-27T01:11:46.966Z,2.40
2019-04-27T01:14:16.258Z,2.50
2019-04-27T01:16:44.657Z,2.63
2019-04-27T01:19:14.669Z,3.53
2019-04-27T01:21:44.952Z,4.13
2019-04-27T01:24:14.731Z,2.30
2019-04-27T01:26:50.673Z,1.90
2019-04-27T01:29:23.770Z,2.20
2019-04-27T01:31:52.171Z,1.40
2019-04-27T01:34:21.104Z,1.97
2019-04-27T01:36:51.137Z,3.93
2019-04-27T01:39:20.217Z,1.17
2019-04-27T01:41:49.104Z,1.73
2019-04-27T01:44:19.256Z,1.03
2019-04-27T01:46:48.696Z,2.40
2019-04-27T01:49:19.455Z,2.70
2019-04-27T01:51:49.729Z,1.87
2019-04-27T01:54:21.399Z,1.37
2019-04-27T01:56:50.600Z,1.47
2019-04-27T01:59:20.340Z,0.60
2019-04-27T02:02:08.800Z,1.03
2019-04-27T02:04:46.716Z,0.90
2019-04-27T02:07:19.186Z,0.93
2019-04-27T02:09:52.395Z,0.97
2019-04-27T02:12:20.749Z,1.10
2019-04-27T02:14:52.968Z,1.53
2019-04-27T02:17:22.769Z,1.13
2019-04-27T02:19:51.435Z,1.50
2019-04-27T02:22:19.872Z,1.13
2019-04-27T02:24:49.245Z,0.97
2019-04-27T02:27:21.160Z,0.40
2019-04-27T02:30:00.616Z,1.10
2019-04-27T02:32:30.801Z,1.23
2019-04-27T02:35:04.915Z,1.40
2019-04-27T02:37:33.856Z,4.17
2019-04-27T02:40:06.433Z,1.30
2019-04-27T02:42:42.053Z,0.60
2019-04-27T02:45:10.732Z,0.80
2019-04-27T02:47:40.858Z,1.57
2019-04-27T02:50:10.997Z,0.60
2019-04-27T02:52:42.983Z,1.03
2019-04-27T02:55:12.113Z,0.47
2019-04-27T02:57:43.156Z,0.70
2019-04-27T03:00:14.298Z,0.70
2019-04-27T03:02:44.359Z,0.93
2019-04-27T03:05:16.246Z,2.10
2019-04-27T03:07:46.557Z,0.70
2019-04-27T03:10:19.867Z,3.27
2019-04-27T03:12:50.107Z,1.57
2019-04-27T03:15:25.392Z,3.53
2019-04-27T03:17:55.440Z,0.77
2019-04-27T03:20:43.052Z,2.57
2019-04-27T03:23:12.057Z,1.37
2019-04-27T03:25:52.868Z,1.90
2019-04-27T03:28:21.277Z,0.50
2019-04-27T03:30:52.618Z,2.07
2019-04-27T03:33:23.525Z,4.63
2019-04-27T03:35:53.445Z,3.63
2019-04-27T03:38:23.746Z,2.73
2019-04-27T03:40:53.066Z,4.20
2019-04-27T03:43:25.133Z,1.97
2019-04-27T03:45:56.404Z,1.00
2019-04-27T03:48:26.068Z,2.77
2019-04-27T03:51:02.297Z,0.97
2019-04-27T03:53:35.043Z,2.70
2019-04-27T03:56:20.023Z,0.90
2019-04-27T03:58:59.652Z,1.30
2019-04-27T04:01:30.187Z,1.70
2019-04-27T04:03:59.890Z,1.23
2019-04-27T04:06:29.520Z,1.57
2019-04-27T04:09:01.460Z,1.40
2019-04-27T04:11:39.527Z,1.33
2019-04-27T04:14:16.713Z,1.90
2019-04-27T04:16:49.675Z,1.40
2019-04-27T04:19:19.647Z,0.90
2019-04-27T04:21:50.510Z,0.83
2019-04-27T04:24:20.082Z,1.13
2019-04-27T04:26:51.937Z,0.50
2019-04-27T04:29:21.254Z,1.03
2019-04-27T04:31:50.672Z,1.10
2019-04-27T04:34:20.858Z,1.70
2019-04-27T04:36:50.864Z,1.80
2019-04-27T04:39:19.983Z,1.33
2019-04-27T04:41:53.625Z,0.93
2019-04-27T04:44:41.638Z,1.50
2019-04-27T04:47:23.135Z,2.10
2019-04-27T04:50:07.362Z,0.67
2019-04-27T04:52:23.078Z,0.60
2019-04-27T04:54:54.511Z,0.93
2019-04-27T04:57:24.842Z,0.70
2019-04-27T04:59:53.878Z,1.20
2019-04-27T05:02:23.728Z,0.70
2019-04-27T05:04:52.765Z,3.10
2019-04-27T05:07:24.444Z,1.53
2019-04-27T05:09:59.672Z,0.87
2019-04-27T05:12:30.732Z,1.73
2019-04-27T05:14:59.255Z,1.30
2019-04-27T05:17:29.755Z,0.70
2019-04-27T05:20:01.101Z,0.60
2019-04-27T05:22:33.231Z,0.60
2019-04-27T05:25:04.495Z,0.87
2019-04-27T05:27:33.760Z,0.30
2019-04-27T05:30:09.346Z,0.70
2019-04-27T05:32:39.306Z,0.70
2019-04-27T05:35:09.078Z,0.40
2019-04-27T05:37:38.975Z,0.63
2019-04-27T05:40:09.141Z,0.70
2019-04-27T05:42:39.733Z,0.97
2019-04-27T05:45:15.363Z,0.80
2019-04-27T05:47:55.209Z,0.70
2019-04-27T05:50:35.601Z,0.93
2019-04-27T05:52:59.703Z,0.60
2019-04-27T05:55:31.986Z,0.57
2019-04-27T05:58:03.560Z,0.47
2019-04-27T06:00:34.795Z,0.50
2019-04-27T06:03:05.967Z,0.63
2019-04-27T06:05:34.475Z,1.90
2019-04-27T06:08:04.656Z,1.27
2019-04-27T06:10:35.037Z,0.93
2019-04-27T06:13:05.090Z,0.63
2019-04-27T06:15:38.907Z,1.47
2019-04-27T06:18:10.068Z,1.73
2019-04-27T06:20:51.324Z,0.63
2019-04-27T06:23:11.935Z,0.50
2019-04-27T06:25:40.336Z,0.50
2019-04-27T06:28:09.344Z,1.53
2019-04-27T06:30:39.182Z,0.93
2019-04-27T06:33:10.551Z,1.13
2019-04-27T06:35:40.952Z,1.20
2019-04-27T06:38:11.413Z,0.50
2019-04-27T06:40:42.130Z,0.93
2019-04-27T06:43:12.574Z,0.80
2019-04-27T06:45:44.084Z,0.53
2019-04-27T06:48:21.399Z,0.90
2019-04-27T06:51:02.645Z,0.40
2019-04-27T06:53:24.344Z,1.20
2019-04-27T06:55:54.376Z,1.07
2019-04-27T06:58:22.989Z,1.10
2019-04-27T07:00:51.414Z,0.50
2019-04-27T07:03:23.121Z,0.50
2019-04-27T07:05:51.707Z,0.50
2019-04-27T07:08:20.431Z,0.60
2019-04-27T07:10:51.784Z,0.90
2019-04-27T07:13:23.962Z,0.80
2019-04-27T07:15:54.285Z,0.97
2019-04-27T07:18:24.104Z,0.87
2019-04-27T07:20:53.953Z,0.70
2019-04-27T07:23:24.116Z,0.57
2019-04-27T07:25:54.168Z,0.60
2019-04-27T07:28:26.136Z,0.70
2019-04-27T07:30:55.725Z,0.60
2019-04-27T07:33:25.976Z,0.87
2019-04-27T07:35:54.409Z,3.93
2019-04-27T07:38:25.624Z,1.10
2019-04-27T07:40:58.563Z,1.93
2019-04-27T07:43:32.811Z,3.53
2019-04-27T07:46:10.176Z,5.70
2019-04-27T07:48:39.598Z,8.53
2019-04-27T07:51:10.795Z,7.43
2019-04-27T07:53:41.122Z,12.00
2019-04-27T07:56:10.890Z,11.70
2019-04-27T07:58:40.875Z,5.57
2019-04-27T08:01:11.580Z,6.33
2019-04-27T08:03:39.952Z,5.47
2019-04-27T08:06:10.848Z,6.13
2019-04-27T08:08:41.261Z,4.27
2019-04-27T08:11:11.357Z,7.83
2019-04-27T08:13:39.843Z,4.97
2019-04-27T08:16:08.743Z,7.60
2019-04-27T08:18:37.135Z,2.13
2019-04-27T08:21:08.941Z,2.30
2019-04-27T08:23:39.323Z,3.13
2019-04-27T08:26:09.125Z,6.57
2019-04-27T08:28:56.008Z,2.57
2019-04-27T08:31:26.071Z,2.87
2019-04-27T08:33:54.475Z,1.20
2019-04-27T08:36:24.297Z,0.93
2019-04-27T08:38:52.975Z,3.77
2019-04-27T08:41:24.701Z,1.90
2019-04-27T08:43:56.075Z,6.40
2019-04-27T08:46:25.787Z,2.50
2019-04-27T08:48:56.577Z,1.00
2019-04-27T08:51:29.432Z,4.27
2019-04-27T08:53:59.110Z,2.80
2019-04-27T08:56:27.559Z,2.80
2019-04-27T08:58:59.484Z,1.20
2019-04-27T09:01:31.085Z,3.60
2019-04-27T09:04:01.079Z,1.07
2019-04-27T09:06:32.504Z,1.53
2019-04-27T09:09:06.032Z,4.27
2019-04-27T09:11:54.517Z,0.53
2019-04-27T09:14:29.657Z,1.57
2019-04-27T09:17:04.716Z,1.00
2019-04-27T09:19:36.177Z,2.60
2019-04-27T09:22:15.600Z,4.67
2019-04-27T09:24:43.438Z,3.17
2019-04-27T09:27:19.856Z,4.53
2019-04-27T09:29:52.433Z,3.63
2019-04-27T09:32:21.092Z,2.40
2019-04-27T09:34:53.949Z,6.87
2019-04-27T09:37:24.803Z,4.17
2019-04-27T09:39:56.119Z,3.40
2019-04-27T09:42:27.419Z,4.73
2019-04-27T09:44:59.798Z,3.37
2019-04-27T09:47:30.161Z,1.30
2019-04-27T09:50:01.901Z,4.07
2019-04-27T09:52:33.650Z,3.10
2019-04-27T09:55:02.588Z,1.63
2019-04-27T09:57:30.989Z,7.53
2019-04-27T10:00:06.362Z,3.17
2019-04-27T10:02:38.872Z,1.90
2019-04-27T10:05:08.231Z,2.97
2019-04-27T10:07:45.695Z,2.83
2019-04-27T10:10:15.817Z,2.23
2019-04-27T10:12:46.492Z,2.53
2019-04-27T10:15:17.567Z,5.10
2019-04-27T10:17:47.858Z,1.27
2019-04-27T10:20:17.686Z,5.87
2019-04-27T10:22:46.773Z,2.47
2019-04-27T10:25:24.058Z,4.63
2019-04-27T10:28:01.255Z,6.60
2019-04-27T10:30:33.250Z,3.00
2019-04-27T10:33:02.838Z,3.37
2019-04-27T10:35:34.166Z,3.63
2019-04-27T10:38:02.583Z,5.50
2019-04-27T10:40:33.975Z,4.23
2019-04-27T10:43:03.313Z,1.83
2019-04-27T10:45:35.807Z,3.97
2019-04-27T10:48:07.607Z,5.77
2019-04-27T10:50:42.423Z,3.50
2019-04-27T10:53:11.924Z,0.67
2019-04-27T10:55:41.972Z,3.73
2019-04-27T10:58:12.305Z,2.57
2019-04-27T11:00:45.984Z,3.33
2019-04-27T11:03:18.055Z,2.33
2019-04-27T11:06:02.473Z,1.90
2019-04-27T11:08:31.064Z,1.67
2019-04-27T11:11:01.105Z,2.13
2019-04-27T11:13:31.581Z,2.97
2019-04-27T11:16:02.003Z,2.47
2019-04-27T11:18:30.391Z,1.73
2019-04-27T11:20:58.795Z,1.23
2019-04-27T11:23:28.042Z,3.80
2019-04-27T11:25:58.626Z,1.37
2019-04-27T11:28:27.051Z,3.87
2019-04-27T11:30:58.404Z,1.03
2019-04-27T11:33:27.363Z,2.93
2019-04-27T11:36:00.441Z,1.27
2019-04-27T11:38:30.339Z,1.10
2019-04-27T11:40:58.741Z,0.70
2019-04-27T11:43:28.113Z,1.93
2019-04-27T11:46:01.568Z,1.40
2019-04-27T11:48:32.426Z,2.27
2019-04-27T11:51:00.820Z,1.30
2019-04-27T11:53:31.685Z,1.10
2019-04-27T11:56:00.080Z,0.90
2019-04-27T11:58:29.111Z,0.90
2019-04-27T12:00:57.766Z,0.93
2019-04-27T12:03:26.759Z,0.93
2019-04-27T12:06:00.302Z,1.73
2019-04-27T12:08:28.868Z,0.60
2019-04-27T12:10:58.290Z,0.87
2019-04-27T12:13:28.584Z,3.23
2019-04-27T12:15:58.859Z,3.70
2019-04-27T12:18:28.803Z,1.07
2019-04-27T12:20:58.859Z,0.83
2019-04-27T12:23:35.090Z,0.70
2019-04-27T12:26:15.954Z,1.87
2019-04-27T12:28:49.027Z,3.70
2019-04-27T12:31:21.152Z,3.10
2019-04-27T12:33:53.464Z,4.97
2019-04-27T12:36:22.442Z,4.47
2019-04-27T12:38:53.014Z,1.77
2019-04-27T12:41:23.288Z,1.30
2019-04-27T12:43:56.050Z,0.90
2019-04-27T12:46:24.527Z,4.67
2019-04-27T12:48:57.059Z,3.23
2019-04-27T12:51:28.396Z,1.83
2019-04-27T12:54:07.489Z,1.70
2019-04-27T12:56:43.455Z,5.97
2019-04-27T12:59:20.332Z,1.47
2019-04-27T13:01:51.599Z,7.63
2019-04-27T13:04:24.025Z,2.20
2019-04-27T13:06:55.794Z,3.23
2019-04-27T13:09:25.669Z,2.10
2019-04-27T13:11:56.608Z,1.33
2019-04-27T13:14:26.349Z,1.60
2019-04-27T13:16:58.517Z,3.90
2019-04-27T13:19:30.859Z,1.03
2019-04-27T13:22:00.729Z,2.40
2019-04-27T13:24:32.791Z,3.00
2019-04-27T13:27:02.844Z,1.70
2019-04-27T13:29:39.566Z,1.27
2019-04-27T13:32:10.597Z,4.43
2019-04-27T13:34:42.351Z,6.00
2019-04-27T13:37:37.172Z,3.87
2019-04-27T13:40:07.030Z,1.97
2019-04-27T13:42:39.300Z,4.47
2019-04-27T13:45:11.270Z,2.03
2019-04-27T13:47:46.443Z,4.60
2019-04-27T13:50:16.999Z,1.50
2019-04-27T13:52:49.110Z,2.97
2019-04-27T13:55:21.230Z,3.10
2019-04-27T13:57:51.847Z,3.60
2019-04-27T14:00:22.010Z,2.63
2019-04-27T14:02:50.687Z,3.90
2019-04-27T14:05:23.772Z,2.13
2019-04-27T14:07:52.183Z,2.00
2019-04-27T14:10:20.883Z,1.97
2019-04-27T14:12:52.091Z,3.03
2019-04-27T14:15:20.645Z,4.17
2019-04-27T14:17:51.357Z,1.80
2019-04-27T14:20:22.874Z,1.63
2019-04-27T14:22:54.510Z,3.37
2019-04-27T14:25:25.536Z,2.20
2019-04-27T14:28:00.244Z,2.43
2019-04-27T14:30:31.521Z,1.20
2019-04-27T14:33:03.823Z,2.00
2019-04-27T14:35:34.003Z,2.50
2019-04-27T14:38:11.898Z,1.40
2019-04-27T14:40:41.923Z,1.30
2019-04-27T14:43:13.808Z,1.33
2019-04-27T14:45:48.614Z,4.20
2019-04-27T14:48:19.037Z,4.93
2019-04-27T14:50:50.892Z,4.00
2019-04-27T14:53:19.324Z,3.63
2019-04-27T14:55:50.613Z,4.30
2019-04-27T14:58:19.540Z,3.80
2019-04-27T15:00:51.275Z,4.33
2019-04-27T15:03:21.908Z,3.13
2019-04-27T15:05:55.247Z,2.60
2019-04-27T15:08:28.675Z,2.00
2019-04-27T15:11:00.868Z,1.60
2019-04-27T15:13:32.082Z,4.97
2019-04-27T15:16:02.668Z,4.43
2019-04-27T15:18:34.634Z,6.57
2019-04-27T15:21:03.746Z,2.70
2019-04-27T15:23:32.567Z,3.57
2019-04-27T15:26:00.995Z,2.47
2019-04-27T15:28:34.005Z,1.00
2019-04-27T15:31:04.076Z,3.33
2019-04-27T15:33:53.265Z,1.63
2019-04-27T15:36:28.321Z,1.00
2019-04-27T15:39:00.100Z,1.47
2019-04-27T15:41:31.574Z,1.33
2019-04-27T15:44:05.820Z,3.87
2019-04-27T15:46:33.725Z,0.60
2019-04-27T15:49:03.021Z,4.37
2019-04-27T15:51:34.318Z,2.63
2019-04-27T15:54:05.089Z,2.83
2019-04-27T15:56:36.716Z,7.73
2019-04-27T15:59:11.696Z,6.27
2019-04-27T16:01:40.982Z,39.73
2019-04-27T16:07:05.927Z,11.23
2019-04-27T16:09:49.020Z,5.90
2019-04-27T16:12:20.476Z,2.23
2019-04-27T16:14:50.519Z,5.13
2019-04-27T16:17:22.982Z,3.80
2019-04-27T16:19:53.131Z,2.90
2019-04-27T16:22:26.818Z,6.63
2019-04-27T16:24:54.744Z,4.57
2019-04-27T16:27:25.899Z,4.53
2019-04-27T16:29:57.856Z,3.23
2019-04-27T16:32:29.719Z,6.57
2019-04-27T16:34:59.372Z,11.97
2019-04-27T16:37:39.974Z,13.07
2019-04-27T16:40:10.754Z,24.33
2019-04-27T16:42:40.729Z,18.30
2019-04-27T16:45:09.162Z,7.93
2019-04-27T16:47:39.488Z,16.57
2019-04-27T16:50:11.315Z,8.40
2019-04-27T16:52:41.036Z,13.87
2019-04-27T16:55:11.348Z,9.07
2019-04-27T16:57:44.558Z,333.93
2019-04-27T17:00:14.605Z,438.17
2019-04-27T17:02:54.826Z,915.77
2019-04-27T17:05:28.621Z,631.83
2019-04-27T17:07:50.408Z,188.53
2019-04-27T17:10:25.468Z,124.67
2019-04-27T17:12:51.542Z,110.77
2019-04-27T17:15:40.555Z,92.23
2019-04-27T17:18:19.865Z,77.23
2019-04-27T17:20:59.392Z,68.43
2019-04-27T17:23:31.289Z,65.10
2019-04-27T17:26:04.269Z,50.77
2019-04-27T17:28:40.545Z,55.43
2019-04-27T17:31:13.012Z,46.30
2019-04-27T17:33:44.631Z,42.93
2019-04-27T17:36:12.059Z,46.40
2019-04-27T17:38:47.366Z,45.07
2019-04-27T17:41:14.766Z,38.80
2019-04-27T17:43:43.181Z,42.00
2019-04-27T17:46:13.208Z,36.83
2019-04-27T17:48:41.621Z,32.27
2019-04-27T17:51:10.029Z,35.17
2019-04-27T17:53:38.464Z,31.50
2019-04-27T17:56:08.613Z,32.17
2019-04-27T17:58:39.747Z,31.13
2019-04-27T18:01:09.368Z,27.57
2019-04-27T18:04:00.149Z,28.63
2019-04-27T18:06:32.952Z,25.87
2019-04-27T18:09:09.410Z,28.13
2019-04-27T18:11:38.497Z,22.33
2019-04-27T18:14:11.166Z,24.40
2019-04-27T18:16:43.291Z,24.20
2019-04-27T18:19:25.083Z,19.60
2019-04-27T18:22:02.321Z,19.70
2019-04-27T18:24:32.683Z,18.77
2019-04-27T18:27:14.040Z,17.63
2019-04-27T18:29:46.278Z,18.67
2019-04-27T18:32:16.312Z,18.13
2019-04-27T18:34:50.722Z,17.07
2019-04-27T18:37:24.543Z,17.47
2019-04-27T18:39:54.973Z,17.17
2019-04-27T18:42:28.034Z,15.73
2019-04-27T18:45:06.018Z,14.83
2019-04-27T18:47:27.222Z,16.33
2019-04-27T18:50:07.520Z,16.40
2019-04-27T18:52:50.206Z,13.70
2019-04-27T18:55:22.538Z,16.43
2019-04-27T18:57:54.341Z,14.17
2019-04-27T19:00:24.565Z,14.60
2019-04-27T19:02:55.094Z,11.43
2019-04-27T19:05:39.270Z,11.83
2019-04-27T19:08:00.579Z,13.10
2019-04-27T19:10:31.933Z,11.70
2019-04-27T19:13:03.215Z,12.03
2019-04-27T19:15:33.115Z,11.93
2019-04-27T19:18:04.739Z,13.60
2019-04-27T19:20:33.736Z,11.27
2019-04-27T19:23:05.806Z,11.30
2019-04-27T19:25:48.246Z,10.77
2019-04-27T19:28:30.683Z,11.37
2019-04-27T19:31:00.241Z,11.43
2019-04-27T19:33:30.888Z,10.87
2019-04-27T19:36:02.191Z,9.70
2019-04-27T19:38:34.071Z,9.60
2019-04-27T19:41:05.111Z,12.40
2019-04-27T19:43:34.405Z,9.63
2019-04-27T19:46:07.629Z,11.60
2019-04-27T19:48:39.403Z,7.67
2019-04-27T19:51:09.829Z,9.57
2019-04-27T19:53:42.587Z,7.77
2019-04-27T19:56:12.412Z,9.07
2019-04-27T19:58:50.149Z,8.77
2019-04-27T20:01:23.519Z,10.50
2019-04-27T20:03:57.957Z,9.37
2019-04-27T20:06:29.250Z,7.90
2019-04-27T20:08:59.719Z,7.90
2019-04-27T20:11:30.620Z,7.17
2019-04-27T20:14:00.826Z,8.73
2019-04-27T20:16:31.817Z,7.50
2019-04-27T20:19:01.557Z,8.60
2019-04-27T20:21:31.587Z,8.73
2019-04-27T20:24:01.787Z,7.87
2019-04-27T20:26:34.772Z,6.60
2019-04-27T20:29:06.708Z,9.07
2019-04-27T20:31:37.788Z,8.80
2019-04-27T20:34:09.632Z,7.23
2019-04-27T20:36:41.402Z,7.50
2019-04-27T20:39:12.819Z,6.73
2019-04-27T20:41:41.642Z,9.13
2019-04-27T20:44:12.531Z,7.23
2019-04-27T20:46:42.580Z,5.93
2019-04-27T20:49:18.341Z,6.77
2019-04-27T20:51:53.192Z,7.33
2019-04-27T20:54:24.492Z,6.20
2019-04-27T20:56:57.095Z,5.87
2019-04-27T20:59:24.217Z,7.17
2019-04-27T21:01:54.579Z,5.83
2019-04-27T21:04:25.227Z,8.23
2019-04-27T21:07:07.112Z,5.87
2019-04-27T21:09:41.423Z,6.10
2019-04-27T21:12:11.349Z,6.73
2019-04-27T21:14:42.363Z,7.90
2019-04-27T21:17:13.715Z,6.10
2019-04-27T21:19:43.628Z,7.30
2019-04-27T21:22:13.782Z,6.13
2019-04-27T21:24:42.775Z,5.10
2019-04-27T21:27:12.840Z,6.93
2019-04-27T21:29:42.252Z,4.53
2019-04-27T21:32:11.180Z,6.30
2019-04-27T21:34:41.319Z,5.43
2019-04-27T21:37:12.535Z,5.30
2019-04-27T21:39:41.325Z,6.00
2019-04-27T21:42:11.355Z,5.53
2019-04-27T21:44:41.933Z,8.50
2019-04-27T21:47:12.114Z,7.93
2019-04-27T21:49:41.643Z,7.70
2019-04-27T21:52:27.592Z,5.67
2019-04-27T21:54:57.977Z,4.60
2019-04-27T21:57:26.712Z,6.17
2019-04-27T21:59:58.074Z,5.80
2019-04-27T22:02:31.115Z,5.20
2019-04-27T22:05:01.892Z,3.83
2019-04-27T22:07:32.732Z,5.07
2019-04-27T22:10:03.237Z,6.07
2019-04-27T22:12:31.677Z,6.03
2019-04-27T22:15:05.136Z,5.67
2019-04-27T22:17:33.686Z,8.13
2019-04-27T22:20:06.080Z,4.50
2019-04-27T22:22:38.657Z,3.67
2019-04-27T22:25:12.345Z,4.03
2019-04-27T22:27:41.394Z,5.37
2019-04-27T22:30:12.319Z,4.00
2019-04-27T22:32:41.932Z,6.13
2019-04-27T22:35:11.990Z,4.97
2019-04-27T22:37:41.368Z,4.50
2019-04-27T22:40:13.401Z,4.50
2019-04-27T22:42:55.580Z,5.67
2019-04-27T22:45:28.408Z,4.30
2019-04-27T22:47:58.447Z,3.17
2019-04-27T22:50:26.885Z,4.13
2019-04-27T22:52:55.278Z,4.10
2019-04-27T22:55:25.636Z,3.53
2019-04-27T22:58:01.553Z,5.33
2019-04-27T23:00:36.072Z,4.00
2019-04-27T23:03:06.894Z,3.17
2019-04-27T23:05:42.970Z,3.50
2019-04-27T23:08:11.511Z,4.37
2019-04-27T23:10:41.540Z,3.13
2019-04-27T23:13:11.933Z,4.97
2019-04-27T23:15:43.897Z,2.90
2019-04-27T23:18:20.812Z,3.23
2019-04-27T23:20:52.235Z,4.30
2019-04-27T23:23:23.903Z,4.37
2019-04-27T23:25:55.111Z,4.00
2019-04-27T23:28:28.157Z,3.37
2019-04-27T23:31:06.055Z,3.80
2019-04-27T23:33:36.391Z,3.63
2019-04-27T23:36:11.467Z,3.10
2019-04-27T23:38:42.640Z,2.53
2019-04-27T23:41:11.646Z,3.60
2019-04-27T23:43:40.027Z,2.70
2019-04-27T23:46:08.463Z,3.10
2019-04-27T23:48:45.427Z,4.37
2019-04-27T23:51:27.131Z,3.60
2019-04-27T23:53:55.528Z,2.87
2019-04-27T23:56:26.773Z,3.43
2019-04-27T23:58:59.369Z,2.63
